sensor_id;sensor_type;location;lat;lon;timestamp;temperature;humidity
11812;DHT22;5963;50.184;9.162;2023-08-24T00:01:05;18.10;99.90
11812;DHT22;5963;50.184;9.162;2023-08-24T00:03:34;18.20;99.90
11812;DHT22;5963;50.184;9.162;2023-08-24T00:06:02;18.10;99.90
11812;DHT22;5963;50.184;9.162;2023-08-24T00:08:31;18.10;99.90
11812;DHT22;5963;50.184;9.162;2023-08-24T00:10:59;18.10;99.90
11812;DHT22;5963;50.184;9.162;2023-08-24T00:13:28;18.00;99.90
11812;DHT22;5963;50.184;9.162;2023-08-24T00:15:56;18.00;99.90
11812;DHT22;5963;50.184;9.162;2023-08-24T00:18:26;17.90;99.90
11812;DHT22;5963;50.184;9.162;2023-08-24T00:20:54;18.00;99.90
11812;DHT22;5963;50.184;9.162;2023-08-24T00:23:22;17.90;99.90
11812;DHT22;5963;50.184;9.162;2023-08-24T00:25:50;18.00;99.90
11812;DHT22;5963;50.184;9.162;2023-08-24T00:28:18;18.00;99.90
11812;DHT22;5963;50.184;9.162;2023-08-24T00:30:48;18.10;99.90
11812;DHT22;5963;50.184;9.162;2023-08-24T00:33:16;18.10;99.90
11812;DHT22;5963;50.184;9.162;2023-08-24T00:35:44;18.00;99.90
11812;DHT22;5963;50.184;9.162;2023-08-24T00:38:12;17.80;99.90
11812;DHT22;5963;50.184;9.162;2023-08-24T00:40:41;17.80;99.90
11812;DHT22;5963;50.184;9.162;2023-08-24T00:43:10;17.70;99.90
11812;DHT22;5963;50.184;9.162;2023-08-24T00:45:39;17.60;99.90
11812;DHT22;5963;50.184;9.162;2023-08-24T00:48:08;17.60;99.90
11812;DHT22;5963;50.184;9.162;2023-08-24T00:50:36;17.50;99.90
11812;DHT22;5963;50.184;9.162;2023-08-24T00:53:04;17.50;99.90
11812;DHT22;5963;50.184;9.162;2023-08-24T00:55:33;17.50;99.90
11812;DHT22;5963;50.184;9.162;2023-08-24T00:58:02;17.50;99.90
11812;DHT22;5963;50.184;9.162;2023-08-24T01:00:30;17.50;99.90
11812;DHT22;5963;50.184;9.162;2023-08-24T01:02:58;17.40;99.90
11812;DHT22;5963;50.184;9.162;2023-08-24T01:05:28;17.60;99.90
11812;DHT22;5963;50.184;9.162;2023-08-24T01:07:56;17.50;99.90
11812;DHT22;5963;50.184;9.162;2023-08-24T01:10:25;17.30;99.90
11812;DHT22;5963;50.184;9.162;2023-08-24T01:13:00;17.30;99.90
11812;DHT22;5963;50.184;9.162;2023-08-24T01:15:37;17.20;99.90
11812;DHT22;5963;50.184;9.162;2023-08-24T01:18:10;17.10;99.90
11812;DHT22;5963;50.184;9.162;2023-08-24T01:20:42;17.20;99.90
11812;DHT22;5963;50.184;9.162;2023-08-24T01:23:22;17.10;99.90
11812;DHT22;5963;50.184;9.162;2023-08-24T01:26:03;17.00;99.90
11812;DHT22;5963;50.184;9.162;2023-08-24T01:28:32;17.10;99.90
11812;DHT22;5963;50.184;9.162;2023-08-24T01:31:00;17.10;99.90
11812;DHT22;5963;50.184;9.162;2023-08-24T01:33:29;17.00;99.90
11812;DHT22;5963;50.184;9.162;2023-08-24T01:35:57;17.00;99.90
11812;DHT22;5963;50.184;9.162;2023-08-24T01:38:25;17.00;99.90
11812;DHT22;5963;50.184;9.162;2023-08-24T01:41:02;17.00;99.90
11812;DHT22;5963;50.184;9.162;2023-08-24T01:43:36;17.00;99.90
11812;DHT22;5963;50.184;9.162;2023-08-24T01:46:13;17.10;99.90
11812;DHT22;5963;50.184;9.162;2023-08-24T01:48:43;17.10;99.90
11812;DHT22;5963;50.184;9.162;2023-08-24T01:51:11;17.10;99.90
11812;DHT22;5963;50.184;9.162;2023-08-24T01:53:40;17.00;99.90
11812;DHT22;5963;50.184;9.162;2023-08-24T01:56:11;17.00;99.90
11812;DHT22;5963;50.184;9.162;2023-08-24T01:58:42;17.00;99.90
11812;DHT22;5963;50.184;9.162;2023-08-24T02:01:10;17.00;99.90
11812;DHT22;5963;50.184;9.162;2023-08-24T02:03:39;17.00;99.90
11812;DHT22;5963;50.184;9.162;2023-08-24T02:06:07;17.00;99.90
11812;DHT22;5963;50.184;9.162;2023-08-24T02:08:36;16.90;99.90
11812;DHT22;5963;50.184;9.162;2023-08-24T02:11:04;16.90;99.90
11812;DHT22;5963;50.184;9.162;2023-08-24T02:13:33;16.80;99.90
11812;DHT22;5963;50.184;9.162;2023-08-24T02:16:02;16.70;99.90
11812;DHT22;5963;50.184;9.162;2023-08-24T02:18:30;16.80;99.90
11812;DHT22;5963;50.184;9.162;2023-08-24T02:20:58;16.80;99.90
11812;DHT22;5963;50.184;9.162;2023-08-24T02:23:27;16.90;99.90
11812;DHT22;5963;50.184;9.162;2023-08-24T02:25:56;16.80;99.90
11812;DHT22;5963;50.184;9.162;2023-08-24T02:28:24;16.60;99.90
11812;DHT22;5963;50.184;9.162;2023-08-24T02:30:53;16.60;99.90
11812;DHT22;5963;50.184;9.162;2023-08-24T02:33:21;16.80;99.90
11812;DHT22;5963;50.184;9.162;2023-08-24T02:35:49;16.90;99.90
11812;DHT22;5963;50.184;9.162;2023-08-24T02:38:17;16.80;99.90
11812;DHT22;5963;50.184;9.162;2023-08-24T02:40:45;16.60;99.90
11812;DHT22;5963;50.184;9.162;2023-08-24T02:43:13;16.50;99.90
11812;DHT22;5963;50.184;9.162;2023-08-24T02:45:41;16.60;99.90
11812;DHT22;5963;50.184;9.162;2023-08-24T02:48:11;16.50;99.90
11812;DHT22;5963;50.184;9.162;2023-08-24T02:50:38;16.80;99.90
11812;DHT22;5963;50.184;9.162;2023-08-24T02:53:06;16.70;99.90
11812;DHT22;5963;50.184;9.162;2023-08-24T02:55:34;16.60;99.90
11812;DHT22;5963;50.184;9.162;2023-08-24T02:58:02;16.50;99.90
11812;DHT22;5963;50.184;9.162;2023-08-24T03:00:30;16.50;99.90
11812;DHT22;5963;50.184;9.162;2023-08-24T03:02:59;16.40;99.90
11812;DHT22;5963;50.184;9.162;2023-08-24T03:05:28;16.20;99.90
11812;DHT22;5963;50.184;9.162;2023-08-24T03:07:56;16.10;99.90
11812;DHT22;5963;50.184;9.162;2023-08-24T03:10:24;16.10;99.90
11812;DHT22;5963;50.184;9.162;2023-08-24T03:12:52;16.20;99.90
11812;DHT22;5963;50.184;9.162;2023-08-24T03:15:20;16.20;99.90
11812;DHT22;5963;50.184;9.162;2023-08-24T03:17:48;16.20;99.90
11812;DHT22;5963;50.184;9.162;2023-08-24T03:20:17;16.20;99.90
11812;DHT22;5963;50.184;9.162;2023-08-24T03:22:46;16.30;99.90
11812;DHT22;5963;50.184;9.162;2023-08-24T03:25:17;16.40;99.90
11812;DHT22;5963;50.184;9.162;2023-08-24T03:27:45;16.50;99.90
11812;DHT22;5963;50.184;9.162;2023-08-24T03:30:14;16.40;99.90
11812;DHT22;5963;50.184;9.162;2023-08-24T03:32:42;16.30;99.90
11812;DHT22;5963;50.184;9.162;2023-08-24T03:35:10;16.20;99.90
11812;DHT22;5963;50.184;9.162;2023-08-24T03:37:38;16.20;99.90
11812;DHT22;5963;50.184;9.162;2023-08-24T03:40:11;16.30;99.90
11812;DHT22;5963;50.184;9.162;2023-08-24T03:42:39;16.40;99.90
11812;DHT22;5963;50.184;9.162;2023-08-24T03:45:10;16.30;99.90
11812;DHT22;5963;50.184;9.162;2023-08-24T03:47:38;16.30;99.90
11812;DHT22;5963;50.184;9.162;2023-08-24T03:50:07;16.30;99.90
11812;DHT22;5963;50.184;9.162;2023-08-24T03:52:35;16.40;99.90
11812;DHT22;5963;50.184;9.162;2023-08-24T03:55:03;16.20;99.90
11812;DHT22;5963;50.184;9.162;2023-08-24T03:57:33;16.30;99.90
11812;DHT22;5963;50.184;9.162;2023-08-24T04:00:01;16.20;99.90
11812;DHT22;5963;50.184;9.162;2023-08-24T04:02:32;16.20;99.90
11812;DHT22;5963;50.184;9.162;2023-08-24T04:05:02;16.10;99.90
11812;DHT22;5963;50.184;9.162;2023-08-24T04:07:30;16.00;99.90
11812;DHT22;5963;50.184;9.162;2023-08-24T04:09:59;16.00;99.90
11812;DHT22;5963;50.184;9.162;2023-08-24T04:12:27;16.10;99.90
11812;DHT22;5963;50.184;9.162;2023-08-24T04:14:57;16.00;99.90
11812;DHT22;5963;50.184;9.162;2023-08-24T04:17:25;16.10;99.90
11812;DHT22;5963;50.184;9.162;2023-08-24T04:19:53;16.20;99.90
11812;DHT22;5963;50.184;9.162;2023-08-24T04:22:20;16.30;99.90
11812;DHT22;5963;50.184;9.162;2023-08-24T04:24:48;16.30;99.90
11812;DHT22;5963;50.184;9.162;2023-08-24T04:27:16;16.40;99.90
11812;DHT22;5963;50.184;9.162;2023-08-24T04:29:44;16.40;99.90
11812;DHT22;5963;50.184;9.162;2023-08-24T04:32:13;16.50;99.90
11812;DHT22;5963;50.184;9.162;2023-08-24T04:34:41;16.70;99.90
11812;DHT22;5963;50.184;9.162;2023-08-24T04:37:09;16.80;99.90
11812;DHT22;5963;50.184;9.162;2023-08-24T04:39:37;16.90;99.90
11812;DHT22;5963;50.184;9.162;2023-08-24T04:42:06;17.00;99.90
11812;DHT22;5963;50.184;9.162;2023-08-24T04:44:37;17.00;99.90
11812;DHT22;5963;50.184;9.162;2023-08-24T04:47:06;17.00;99.90
11812;DHT22;5963;50.184;9.162;2023-08-24T04:49:36;17.00;99.90
11812;DHT22;5963;50.184;9.162;2023-08-24T04:52:04;17.00;99.90
11812;DHT22;5963;50.184;9.162;2023-08-24T04:54:32;17.00;99.90
11812;DHT22;5963;50.184;9.162;2023-08-24T04:57:02;16.90;99.90
11812;DHT22;5963;50.184;9.162;2023-08-24T04:59:30;17.00;99.90
11812;DHT22;5963;50.184;9.162;2023-08-24T05:02:01;17.00;99.90
11812;DHT22;5963;50.184;9.162;2023-08-24T05:04:29;16.90;99.90
11812;DHT22;5963;50.184;9.162;2023-08-24T05:06:58;16.90;99.90
11812;DHT22;5963;50.184;9.162;2023-08-24T05:09:26;17.10;99.90
11812;DHT22;5963;50.184;9.162;2023-08-24T05:11:54;17.20;99.90
11812;DHT22;5963;50.184;9.162;2023-08-24T05:14:22;17.20;99.90
11812;DHT22;5963;50.184;9.162;2023-08-24T05:16:50;17.20;99.90
11812;DHT22;5963;50.184;9.162;2023-08-24T05:19:18;17.10;99.90
11812;DHT22;5963;50.184;9.162;2023-08-24T05:21:46;17.30;99.90
11812;DHT22;5963;50.184;9.162;2023-08-24T05:24:16;17.40;99.90
11812;DHT22;5963;50.184;9.162;2023-08-24T05:26:46;17.50;99.90
11812;DHT22;5963;50.184;9.162;2023-08-24T05:29:14;17.50;99.90
11812;DHT22;5963;50.184;9.162;2023-08-24T05:31:42;17.50;99.90
11812;DHT22;5963;50.184;9.162;2023-08-24T05:34:14;17.70;99.90
11812;DHT22;5963;50.184;9.162;2023-08-24T05:36:42;17.50;99.90
11812;DHT22;5963;50.184;9.162;2023-08-24T05:39:18;17.60;99.90
11812;DHT22;5963;50.184;9.162;2023-08-24T05:41:46;17.60;99.90
11812;DHT22;5963;50.184;9.162;2023-08-24T05:44:14;17.80;99.90
11812;DHT22;5963;50.184;9.162;2023-08-24T05:46:43;17.90;99.90
11812;DHT22;5963;50.184;9.162;2023-08-24T05:49:12;18.00;99.90
11812;DHT22;5963;50.184;9.162;2023-08-24T05:51:40;18.20;99.90
11812;DHT22;5963;50.184;9.162;2023-08-24T05:54:08;18.10;99.90
11812;DHT22;5963;50.184;9.162;2023-08-24T05:56:37;18.20;99.90
11812;DHT22;5963;50.184;9.162;2023-08-24T05:59:05;18.40;99.90
11812;DHT22;5963;50.184;9.162;2023-08-24T06:01:35;18.30;99.90
11812;DHT22;5963;50.184;9.162;2023-08-24T06:04:07;18.40;99.90
11812;DHT22;5963;50.184;9.162;2023-08-24T06:06:36;18.40;99.90
11812;DHT22;5963;50.184;9.162;2023-08-24T06:09:04;18.60;99.90
11812;DHT22;5963;50.184;9.162;2023-08-24T06:11:37;18.40;99.90
11812;DHT22;5963;50.184;9.162;2023-08-24T06:14:07;18.40;99.90
11812;DHT22;5963;50.184;9.162;2023-08-24T06:16:35;18.50;99.90
11812;DHT22;5963;50.184;9.162;2023-08-24T06:19:03;19.10;99.90
11812;DHT22;5963;50.184;9.162;2023-08-24T06:21:31;19.90;99.90
11812;DHT22;5963;50.184;9.162;2023-08-24T06:23:59;20.10;99.90
11812;DHT22;5963;50.184;9.162;2023-08-24T06:26:28;20.20;99.90
11812;DHT22;5963;50.184;9.162;2023-08-24T06:28:57;20.80;99.90
11812;DHT22;5963;50.184;9.162;2023-08-24T06:31:25;20.80;99.90
11812;DHT22;5963;50.184;9.162;2023-08-24T06:33:53;20.80;99.90
11812;DHT22;5963;50.184;9.162;2023-08-24T06:36:21;21.20;99.90
11812;DHT22;5963;50.184;9.162;2023-08-24T06:38:49;21.40;99.90
11812;DHT22;5963;50.184;9.162;2023-08-24T06:41:17;21.50;99.90
11812;DHT22;5963;50.184;9.162;2023-08-24T06:43:45;21.30;99.90
11812;DHT22;5963;50.184;9.162;2023-08-24T06:46:14;20.70;99.90
11812;DHT22;5963;50.184;9.162;2023-08-24T06:48:43;20.80;99.90
11812;DHT22;5963;50.184;9.162;2023-08-24T06:51:12;20.70;99.90
11812;DHT22;5963;50.184;9.162;2023-08-24T06:53:40;21.10;99.90
11812;DHT22;5963;50.184;9.162;2023-08-24T06:56:10;21.20;99.90
11812;DHT22;5963;50.184;9.162;2023-08-24T06:58:38;21.20;99.90
11812;DHT22;5963;50.184;9.162;2023-08-24T07:01:06;21.00;99.90
11812;DHT22;5963;50.184;9.162;2023-08-24T07:03:35;20.80;99.90
11812;DHT22;5963;50.184;9.162;2023-08-24T07:06:05;20.80;99.90
11812;DHT22;5963;50.184;9.162;2023-08-24T07:08:33;20.80;99.90
11812;DHT22;5963;50.184;9.162;2023-08-24T07:11:04;20.70;99.90
11812;DHT22;5963;50.184;9.162;2023-08-24T07:13:32;20.50;99.90
11812;DHT22;5963;50.184;9.162;2023-08-24T07:16:01;20.20;99.90
11812;DHT22;5963;50.184;9.162;2023-08-24T07:18:30;20.10;99.90
11812;DHT22;5963;50.184;9.162;2023-08-24T07:21:02;19.80;99.90
11812;DHT22;5963;50.184;9.162;2023-08-24T07:23:31;19.30;99.90
11812;DHT22;5963;50.184;9.162;2023-08-24T07:25:59;19.30;99.90
11812;DHT22;5963;50.184;9.162;2023-08-24T07:28:28;19.10;99.90
11812;DHT22;5963;50.184;9.162;2023-08-24T07:30:56;19.00;99.90
11812;DHT22;5963;50.184;9.162;2023-08-24T07:33:25;18.90;99.90
11812;DHT22;5963;50.184;9.162;2023-08-24T07:35:55;19.00;99.90
11812;DHT22;5963;50.184;9.162;2023-08-24T07:38:24;19.00;99.90
11812;DHT22;5963;50.184;9.162;2023-08-24T07:40:52;19.10;99.90
11812;DHT22;5963;50.184;9.162;2023-08-24T07:43:20;19.20;99.90
11812;DHT22;5963;50.184;9.162;2023-08-24T07:45:48;19.30;99.90
11812;DHT22;5963;50.184;9.162;2023-08-24T07:48:16;19.50;99.90
11812;DHT22;5963;50.184;9.162;2023-08-24T07:50:44;19.70;99.90
11812;DHT22;5963;50.184;9.162;2023-08-24T07:53:12;19.70;99.90
11812;DHT22;5963;50.184;9.162;2023-08-24T07:55:44;19.90;99.90
11812;DHT22;5963;50.184;9.162;2023-08-24T07:58:14;20.10;99.90
11812;DHT22;5963;50.184;9.162;2023-08-24T08:00:42;20.30;99.90
11812;DHT22;5963;50.184;9.162;2023-08-24T08:03:11;20.50;99.90
11812;DHT22;5963;50.184;9.162;2023-08-24T08:05:39;20.40;99.90
11812;DHT22;5963;50.184;9.162;2023-08-24T08:08:07;20.70;99.90
11812;DHT22;5963;50.184;9.162;2023-08-24T08:10:35;20.80;99.90
11812;DHT22;5963;50.184;9.162;2023-08-24T08:13:05;20.90;99.90
11812;DHT22;5963;50.184;9.162;2023-08-24T08:15:33;20.80;99.90
11812;DHT22;5963;50.184;9.162;2023-08-24T08:18:03;20.50;99.90
11812;DHT22;5963;50.184;9.162;2023-08-24T08:20:31;20.30;99.90
11812;DHT22;5963;50.184;9.162;2023-08-24T08:22:59;20.40;99.90
11812;DHT22;5963;50.184;9.162;2023-08-24T08:25:27;20.20;99.90
11812;DHT22;5963;50.184;9.162;2023-08-24T08:27:58;20.10;99.90
11812;DHT22;5963;50.184;9.162;2023-08-24T08:30:28;20.20;99.90
11812;DHT22;5963;50.184;9.162;2023-08-24T08:32:56;20.20;99.90
11812;DHT22;5963;50.184;9.162;2023-08-24T08:35:24;20.30;99.90
11812;DHT22;5963;50.184;9.162;2023-08-24T08:37:53;20.40;99.90
11812;DHT22;5963;50.184;9.162;2023-08-24T08:40:25;20.80;99.90
11812;DHT22;5963;50.184;9.162;2023-08-24T08:42:57;21.00;99.90
11812;DHT22;5963;50.184;9.162;2023-08-24T08:45:27;21.70;99.90
11812;DHT22;5963;50.184;9.162;2023-08-24T08:48:01;21.90;99.90
11812;DHT22;5963;50.184;9.162;2023-08-24T08:50:32;22.20;99.90
11812;DHT22;5963;50.184;9.162;2023-08-24T08:53:00;22.30;99.90
11812;DHT22;5963;50.184;9.162;2023-08-24T08:55:28;22.50;99.90
11812;DHT22;5963;50.184;9.162;2023-08-24T08:58:00;22.80;99.90
11812;DHT22;5963;50.184;9.162;2023-08-24T09:00:31;22.40;99.90
11812;DHT22;5963;50.184;9.162;2023-08-24T09:03:02;22.10;99.90
11812;DHT22;5963;50.184;9.162;2023-08-24T09:05:32;22.20;99.90
11812;DHT22;5963;50.184;9.162;2023-08-24T09:08:00;22.20;99.90
11812;DHT22;5963;50.184;9.162;2023-08-24T09:10:29;22.40;99.90
11812;DHT22;5963;50.184;9.162;2023-08-24T09:12:57;22.60;99.90
11812;DHT22;5963;50.184;9.162;2023-08-24T09:15:26;22.60;99.90
11812;DHT22;5963;50.184;9.162;2023-08-24T09:17:59;22.30;99.90
11812;DHT22;5963;50.184;9.162;2023-08-24T09:20:29;22.70;99.90
11812;DHT22;5963;50.184;9.162;2023-08-24T09:22:57;23.30;99.90
11812;DHT22;5963;50.184;9.162;2023-08-24T09:25:25;23.70;99.90
11812;DHT22;5963;50.184;9.162;2023-08-24T09:27:56;24.10;99.90
11812;DHT22;5963;50.184;9.162;2023-08-24T09:30:29;24.40;99.90
11812;DHT22;5963;50.184;9.162;2023-08-24T09:33:02;24.70;99.90
11812;DHT22;5963;50.184;9.162;2023-08-24T09:35:35;24.90;99.90
11812;DHT22;5963;50.184;9.162;2023-08-24T09:38:16;25.10;99.90
11812;DHT22;5963;50.184;9.162;2023-08-24T09:40:45;24.80;99.90
11812;DHT22;5963;50.184;9.162;2023-08-24T09:43:15;24.90;99.90
11812;DHT22;5963;50.184;9.162;2023-08-24T09:45:48;25.20;99.90
11812;DHT22;5963;50.184;9.162;2023-08-24T09:48:16;25.70;99.90
11812;DHT22;5963;50.184;9.162;2023-08-24T09:50:47;26.20;99.90
11812;DHT22;5963;50.184;9.162;2023-08-24T09:53:16;26.40;99.90
11812;DHT22;5963;50.184;9.162;2023-08-24T09:55:49;26.50;99.90
11812;DHT22;5963;50.184;9.162;2023-08-24T09:58:22;26.60;99.90
11812;DHT22;5963;50.184;9.162;2023-08-24T10:00:51;26.90;99.90
11812;DHT22;5963;50.184;9.162;2023-08-24T10:03:20;27.00;99.90
11812;DHT22;5963;50.184;9.162;2023-08-24T10:05:52;27.40;99.90
11812;DHT22;5963;50.184;9.162;2023-08-24T10:08:28;27.30;99.90
11812;DHT22;5963;50.184;9.162;2023-08-24T10:10:57;27.40;99.90
11812;DHT22;5963;50.184;9.162;2023-08-24T10:13:31;27.70;99.90
11812;DHT22;5963;50.184;9.162;2023-08-24T10:16:02;27.90;99.90
11812;DHT22;5963;50.184;9.162;2023-08-24T10:18:31;27.90;99.90
11812;DHT22;5963;50.184;9.162;2023-08-24T10:21:02;28.20;99.90
11812;DHT22;5963;50.184;9.162;2023-08-24T10:23:30;28.50;99.90
11812;DHT22;5963;50.184;9.162;2023-08-24T10:26:00;28.30;99.90
11812;DHT22;5963;50.184;9.162;2023-08-24T10:28:31;28.10;99.90
11812;DHT22;5963;50.184;9.162;2023-08-24T10:30:59;28.20;99.90
11812;DHT22;5963;50.184;9.162;2023-08-24T10:33:31;28.40;99.90
11812;DHT22;5963;50.184;9.162;2023-08-24T10:36:06;28.20;99.90
11812;DHT22;5963;50.184;9.162;2023-08-24T10:38:40;28.00;99.90
11812;DHT22;5963;50.184;9.162;2023-08-24T10:41:09;28.00;99.90
11812;DHT22;5963;50.184;9.162;2023-08-24T10:43:48;28.30;99.90
11812;DHT22;5963;50.184;9.162;2023-08-24T10:46:18;28.30;99.90
11812;DHT22;5963;50.184;9.162;2023-08-24T10:48:58;28.60;99.90
11812;DHT22;5963;50.184;9.162;2023-08-24T10:51:28;28.50;99.90
11812;DHT22;5963;50.184;9.162;2023-08-24T10:53:59;28.50;99.90
11812;DHT22;5963;50.184;9.162;2023-08-24T10:56:35;28.40;99.90
11812;DHT22;5963;50.184;9.162;2023-08-24T10:59:13;28.30;99.90
11812;DHT22;5963;50.184;9.162;2023-08-24T11:01:43;28.20;99.90
11812;DHT22;5963;50.184;9.162;2023-08-24T11:04:11;28.10;99.90
11812;DHT22;5963;50.184;9.162;2023-08-24T11:06:54;28.20;99.90
11812;DHT22;5963;50.184;9.162;2023-08-24T11:09:24;28.20;99.90
11812;DHT22;5963;50.184;9.162;2023-08-24T11:11:58;28.10;99.90
11812;DHT22;5963;50.184;9.162;2023-08-24T11:14:27;28.20;99.90
11812;DHT22;5963;50.184;9.162;2023-08-24T11:16:58;27.90;99.90
11812;DHT22;5963;50.184;9.162;2023-08-24T11:19:27;28.10;99.90
11812;DHT22;5963;50.184;9.162;2023-08-24T11:22:01;28.10;99.90
11812;DHT22;5963;50.184;9.162;2023-08-24T11:24:35;28.10;99.90
11812;DHT22;5963;50.184;9.162;2023-08-24T11:27:05;28.40;99.90
11812;DHT22;5963;50.184;9.162;2023-08-24T11:29:35;28.70;99.90
11812;DHT22;5963;50.184;9.162;2023-08-24T11:32:04;29.20;99.90
11812;DHT22;5963;50.184;9.162;2023-08-24T11:34:33;29.70;99.90
11812;DHT22;5963;50.184;9.162;2023-08-24T11:37:04;30.10;99.90
11812;DHT22;5963;50.184;9.162;2023-08-24T11:39:33;30.00;99.90
11812;DHT22;5963;50.184;9.162;2023-08-24T11:42:04;29.50;99.90
11812;DHT22;5963;50.184;9.162;2023-08-24T11:44:45;29.80;99.90
11812;DHT22;5963;50.184;9.162;2023-08-24T11:47:14;29.60;99.90
11812;DHT22;5963;50.184;9.162;2023-08-24T11:49:43;29.40;99.90
11812;DHT22;5963;50.184;9.162;2023-08-24T11:52:12;29.70;99.90
11812;DHT22;5963;50.184;9.162;2023-08-24T11:54:45;29.70;99.90
11812;DHT22;5963;50.184;9.162;2023-08-24T11:57:17;30.20;99.90
11812;DHT22;5963;50.184;9.162;2023-08-24T11:59:46;30.10;99.90
11812;DHT22;5963;50.184;9.162;2023-08-24T12:02:23;30.20;99.90
11812;DHT22;5963;50.184;9.162;2023-08-24T12:04:59;29.80;99.90
11812;DHT22;5963;50.184;9.162;2023-08-24T12:07:59;30.20;99.90
11812;DHT22;5963;50.184;9.162;2023-08-24T12:10:40;30.40;99.90
11812;DHT22;5963;50.184;9.162;2023-08-24T12:13:12;30.50;99.90
11812;DHT22;5963;50.184;9.162;2023-08-24T12:15:47;30.80;99.90
11812;DHT22;5963;50.184;9.162;2023-08-24T12:18:27;30.50;99.90
11812;DHT22;5963;50.184;9.162;2023-08-24T12:21:01;30.10;99.90
11812;DHT22;5963;50.184;9.162;2023-08-24T12:23:50;30.20;99.90
11812;DHT22;5963;50.184;9.162;2023-08-24T12:26:27;29.90;99.90
11812;DHT22;5963;50.184;9.162;2023-08-24T12:29:02;29.90;99.90
11812;DHT22;5963;50.184;9.162;2023-08-24T12:31:57;30.10;99.90
11812;DHT22;5963;50.184;9.162;2023-08-24T12:34:28;30.20;99.90
11812;DHT22;5963;50.184;9.162;2023-08-24T12:36:56;30.10;99.90
11812;DHT22;5963;50.184;9.162;2023-08-24T12:39:47;30.30;99.90
11812;DHT22;5963;50.184;9.162;2023-08-24T12:42:20;30.60;99.90
11812;DHT22;5963;50.184;9.162;2023-08-24T12:44:52;30.20;99.90
11812;DHT22;5963;50.184;9.162;2023-08-24T12:47:31;30.60;99.90
11812;DHT22;5963;50.184;9.162;2023-08-24T12:50:11;30.60;99.90
11812;DHT22;5963;50.184;9.162;2023-08-24T12:52:49;30.50;99.90
11812;DHT22;5963;50.184;9.162;2023-08-24T12:55:38;30.50;99.90
11812;DHT22;5963;50.184;9.162;2023-08-24T12:58:12;30.40;99.90
11812;DHT22;5963;50.184;9.162;2023-08-24T13:00:48;30.10;99.90
11812;DHT22;5963;50.184;9.162;2023-08-24T13:03:20;30.40;99.90
11812;DHT22;5963;50.184;9.162;2023-08-24T13:05:53;30.30;99.90
11812;DHT22;5963;50.184;9.162;2023-08-24T13:08:32;30.10;99.90
11812;DHT22;5963;50.184;9.162;2023-08-24T13:11:02;30.20;99.90
11812;DHT22;5963;50.184;9.162;2023-08-24T13:13:31;30.40;99.90
11812;DHT22;5963;50.184;9.162;2023-08-24T13:15:59;30.40;99.90
11812;DHT22;5963;50.184;9.162;2023-08-24T13:18:27;30.30;99.90
11812;DHT22;5963;50.184;9.162;2023-08-24T13:21:07;30.40;99.90
11812;DHT22;5963;50.184;9.162;2023-08-24T13:23:35;30.80;99.90
11812;DHT22;5963;50.184;9.162;2023-08-24T13:26:23;31.10;99.90
11812;DHT22;5963;50.184;9.162;2023-08-24T13:28:54;30.40;99.90
11812;DHT22;5963;50.184;9.162;2023-08-24T13:31:29;30.50;99.90
11812;DHT22;5963;50.184;9.162;2023-08-24T13:33:59;30.80;99.90
11812;DHT22;5963;50.184;9.162;2023-08-24T13:36:31;30.70;99.90
11812;DHT22;5963;50.184;9.162;2023-08-24T13:39:00;30.90;99.90
11812;DHT22;5963;50.184;9.162;2023-08-24T13:41:30;31.00;99.90
11812;DHT22;5963;50.184;9.162;2023-08-24T13:44:02;29.80;99.90
11812;DHT22;5963;50.184;9.162;2023-08-24T13:46:30;29.40;99.90
11812;DHT22;5963;50.184;9.162;2023-08-24T13:49:01;29.50;99.90
11812;DHT22;5963;50.184;9.162;2023-08-24T13:51:30;29.90;99.90
11812;DHT22;5963;50.184;9.162;2023-08-24T13:53:57;29.50;99.90
11812;DHT22;5963;50.184;9.162;2023-08-24T13:56:25;28.80;99.90
11812;DHT22;5963;50.184;9.162;2023-08-24T13:58:55;28.90;99.90
11812;DHT22;5963;50.184;9.162;2023-08-24T14:01:23;28.80;99.90
11812;DHT22;5963;50.184;9.162;2023-08-24T14:03:52;29.20;99.90
11812;DHT22;5963;50.184;9.162;2023-08-24T14:06:20;29.60;99.90
11812;DHT22;5963;50.184;9.162;2023-08-24T14:08:47;29.90;99.90
11812;DHT22;5963;50.184;9.162;2023-08-24T14:11:15;29.90;99.90
11812;DHT22;5963;50.184;9.162;2023-08-24T14:13:49;30.00;99.90
11812;DHT22;5963;50.184;9.162;2023-08-24T14:16:18;30.00;99.90
11812;DHT22;5963;50.184;9.162;2023-08-24T14:18:47;29.90;99.90
11812;DHT22;5963;50.184;9.162;2023-08-24T14:21:15;29.90;99.90
11812;DHT22;5963;50.184;9.162;2023-08-24T14:23:52;29.80;99.90
11812;DHT22;5963;50.184;9.162;2023-08-24T14:26:21;29.50;99.90
11812;DHT22;5963;50.184;9.162;2023-08-24T14:28:50;29.00;99.90
11812;DHT22;5963;50.184;9.162;2023-08-24T14:31:22;29.10;99.90
11812;DHT22;5963;50.184;9.162;2023-08-24T14:33:51;29.50;99.90
11812;DHT22;5963;50.184;9.162;2023-08-24T14:36:28;29.90;99.90
11812;DHT22;5963;50.184;9.162;2023-08-24T14:38:56;30.00;99.90
11812;DHT22;5963;50.184;9.162;2023-08-24T14:41:24;30.10;99.90
11812;DHT22;5963;50.184;9.162;2023-08-24T14:43:56;30.20;99.90
11812;DHT22;5963;50.184;9.162;2023-08-24T14:46:26;29.00;99.90
11812;DHT22;5963;50.184;9.162;2023-08-24T14:48:54;27.90;99.90
11812;DHT22;5963;50.184;9.162;2023-08-24T14:51:22;27.60;99.90
11812;DHT22;5963;50.184;9.162;2023-08-24T14:53:50;27.40;99.90
11812;DHT22;5963;50.184;9.162;2023-08-24T14:56:18;27.00;99.90
11812;DHT22;5963;50.184;9.162;2023-08-24T14:58:46;26.70;99.90
11812;DHT22;5963;50.184;9.162;2023-08-24T15:01:14;26.30;99.90
11812;DHT22;5963;50.184;9.162;2023-08-24T15:03:44;26.20;99.90
11812;DHT22;5963;50.184;9.162;2023-08-24T15:06:12;26.40;99.90
11812;DHT22;5963;50.184;9.162;2023-08-24T15:08:40;26.50;99.90
11812;DHT22;5963;50.184;9.162;2023-08-24T15:11:09;26.60;99.90
11812;DHT22;5963;50.184;9.162;2023-08-24T15:13:38;26.60;99.90
11812;DHT22;5963;50.184;9.162;2023-08-24T15:16:06;26.70;99.90
11812;DHT22;5963;50.184;9.162;2023-08-24T15:18:38;26.90;99.90
11812;DHT22;5963;50.184;9.162;2023-08-24T15:21:07;27.00;99.90
11812;DHT22;5963;50.184;9.162;2023-08-24T15:23:39;27.10;99.90
11812;DHT22;5963;50.184;9.162;2023-08-24T15:26:09;27.20;99.90
11812;DHT22;5963;50.184;9.162;2023-08-24T15:31:34;26.80;99.90
11812;DHT22;5963;50.184;9.162;2023-08-24T15:34:02;27.00;99.90
11812;DHT22;5963;50.184;9.162;2023-08-24T15:36:32;27.00;99.90
11812;DHT22;5963;50.184;9.162;2023-08-24T15:39:01;26.90;99.90
11812;DHT22;5963;50.184;9.162;2023-08-24T15:41:29;26.90;99.90
11812;DHT22;5963;50.184;9.162;2023-08-24T15:43:57;26.50;99.90
11812;DHT22;5963;50.184;9.162;2023-08-24T15:46:25;25.80;99.90
11812;DHT22;5963;50.184;9.162;2023-08-24T15:48:53;25.70;99.90
11812;DHT22;5963;50.184;9.162;2023-08-24T15:51:22;25.70;99.90
11812;DHT22;5963;50.184;9.162;2023-08-24T15:53:52;25.50;99.90
11812;DHT22;5963;50.184;9.162;2023-08-24T15:56:20;25.50;99.90
11812;DHT22;5963;50.184;9.162;2023-08-24T15:58:48;25.90;99.90
11812;DHT22;5963;50.184;9.162;2023-08-24T16:01:16;26.00;99.90
11812;DHT22;5963;50.184;9.162;2023-08-24T16:03:44;26.20;99.90
11812;DHT22;5963;50.184;9.162;2023-08-24T16:06:12;26.30;99.90